Dorchester, WI

10:00 PM CDT on July 13, 2014 (GMT -0500)
Wausau Downtown (KAUW) Elev 1201 ft | 44.93 °N, 89.63 °W | Change Station

Current weather conditions updated 6 minutes ago

Scattered Clouds
Scattered Clouds
65 °F
Feels Like 65 °F
N
6
Wind Variable Wind from WSW

Tomorrow is forecast to be Much Cooler than today. Thunderstorms.

Today
High -- | Low -- °F
--% Chance of Precip.
Yesterday
High -- | Low -- °F
Precip. -- in
5:27 AM 8:46 PM
Waning Gibbous, 96% visible
Pressure 29.87 in
Visibility 10.0 miles
Clouds Few 6000 ft
Scattered Clouds 8500 ft
Dew Point 49 °F
Humidity 56%
Rainfall 0.00 in
Snow Depth Not available.
UV 0 out of 12
Pollen 4.30 out of 12
Air Quality Not available.
Flu Activity Sporadic
METAR KAUW 140254Z AUTO 24005KT 10SM FEW060 SCT085 18/09 A2987 RMK AO2 RAB21E31 SLP115 P0000 60000 T01830094 55001

More Conditions Fewer Conditions

Pressure 29.87 in
Visibility 10.0 miles
Clouds Few 6000 ft
Scattered Clouds 8500 ft
Dew Point 49 °F
Humidity 56%
Rainfall 0.00 in
Snow Depth Not available.
UV 0 out of 12
Pollen 4.30 out of 12
Air Quality Not available.
Flu Activity Sporadic
METAR KAUW 140254Z AUTO 24005KT 10SM FEW060 SCT085 18/09 A2987 RMK AO2 RAB21E31 SLP115 P0000 60000 T01830094 55001

More Conditions Fewer Conditions

10-Day Weather Forecast

Almanac

Astronomy

Jul. 13, 2014 Rise Set
Actual Time 5:27 AM CDT 8:46 PM CDT
Civil Twilight 4:51 AM CDT 9:22 PM CDT
Nautical Twilight 4:03 AM CDT 10:09 PM CDT
Astronomical Twilight 3:04 AM CDT 11:08 PM CDT
Moon 9:26 PM CDT (7/13) 7:04 AM CDT (7/13)
Length of Visible Light 16h 31m
Length of Day
15h 19m
Tomorrow will be 1m 34s shorter.
Waning Gibbous, 96% of the Moon is Illuminated
Today
Waning Gibbous
Jul 18
Last Quarter
Jul 26
New
Aug 3
First Quarter
Aug 10
Full

Today's Extremes

State Highs State Lows

Community

WunderPhotos

Upload Photos

1,733,505 photos uploaded!

Nearby

Snow Depth

Station Depth Elevation
No new snow has been reported.

Earthquake Activity

City Distance Mag. Time & Date
No recent earthquake activity has been reported nearby.
Minimum magnitude displayed is 2.5.

Coastal Water Temperatures

Place Temperature
No Stations Reporting

Nearby Weather Stations

Station Location Temp. Dew Point Humidity Wind Precip. Elev Updated Type
WIDOT Abbotsford - STH 29 3 mi E of Abbo, Abbotsford, WI 64 °F 58 °F 80% WNW  at  0 mph 0.00 in / hr 1400 ft 8:52 PM CDT MADIS
Rib Falls Repair, Athens, WI 61.3 °F 55 °F 81% WSW  at  0.0 mph 0.00 in / hr 1348 ft 9:59 PM CDT Normal
RAWS DIAMOND LAKE WI, Lublin, WI 59 °F 54 °F 83% North  at  0 mph 0.00 in / hr 1316 ft 9:14 PM CDT MADIS

Show More Stations Show Fewer Stations